sensor_id;sensor_type;location;lat;lon;timestamp;P1;durP1;ratioP1;P2;durP2;ratioP2
48526;SDS011;34317;51.660;5.824;2024-03-25T00:01:45;15.20;;;2.80;;
48526;SDS011;34317;51.660;5.824;2024-03-25T00:04:11;15.38;;;3.47;;
48526;SDS011;34317;51.660;5.824;2024-03-25T00:06:38;19.80;;;2.90;;
48526;SDS011;34317;51.660;5.824;2024-03-25T00:09:04;11.50;;;3.60;;
48526;SDS011;34317;51.660;5.824;2024-03-25T00:11:33;15.40;;;3.40;;
48526;SDS011;34317;51.660;5.824;2024-03-25T00:14:00;14.02;;;3.35;;
48526;SDS011;34317;51.660;5.824;2024-03-25T00:16:26;15.52;;;3.17;;
48526;SDS011;34317;51.660;5.824;2024-03-25T00:18:53;17.52;;;3.38;;
48526;SDS011;34317;51.660;5.824;2024-03-25T00:21:19;21.50;;;3.70;;
48526;SDS011;34317;51.660;5.824;2024-03-25T00:23:45;20.05;;;3.85;;
48526;SDS011;34317;51.660;5.824;2024-03-25T00:26:11;27.85;;;4.07;;
48526;SDS011;34317;51.660;5.824;2024-03-25T00:28:38;23.85;;;3.47;;
48526;SDS011;34317;51.660;5.824;2024-03-25T00:31:05;18.05;;;3.70;;
48526;SDS011;34317;51.660;5.824;2024-03-25T00:33:31;19.13;;;3.85;;
48526;SDS011;34317;51.660;5.824;2024-03-25T00:35:58;15.40;;;3.45;;
48526;SDS011;34317;51.660;5.824;2024-03-25T00:38:25;19.65;;;3.80;;
48526;SDS011;34317;51.660;5.824;2024-03-25T00:40:51;22.20;;;4.32;;
48526;SDS011;34317;51.660;5.824;2024-03-25T00:43:18;18.10;;;3.97;;
48526;SDS011;34317;51.660;5.824;2024-03-25T00:45:44;19.02;;;3.67;;
48526;SDS011;34317;51.660;5.824;2024-03-25T00:48:11;20.45;;;3.67;;
48526;SDS011;34317;51.660;5.824;2024-03-25T00:50:37;22.08;;;3.78;;
48526;SDS011;34317;51.660;5.824;2024-03-25T00:53:04;18.23;;;3.88;;
48526;SDS011;34317;51.660;5.824;2024-03-25T00:55:30;22.30;;;3.95;;
48526;SDS011;34317;51.660;5.824;2024-03-25T00:57:57;22.13;;;4.40;;
48526;SDS011;34317;51.660;5.824;2024-03-25T01:00:23;33.28;;;10.75;;
48526;SDS011;34317;51.660;5.824;2024-03-25T01:02:49;49.13;;;20.83;;
48526;SDS011;34317;51.660;5.824;2024-03-25T01:05:16;61.13;;;25.42;;
48526;SDS011;34317;51.660;5.824;2024-03-25T01:07:42;60.80;;;24.88;;
48526;SDS011;34317;51.660;5.824;2024-03-25T01:10:09;48.03;;;19.63;;
48526;SDS011;34317;51.660;5.824;2024-03-25T01:12:35;45.47;;;14.75;;
48526;SDS011;34317;51.660;5.824;2024-03-25T01:15:01;35.42;;;12.32;;
48526;SDS011;34317;51.660;5.824;2024-03-25T01:17:29;25.75;;;9.80;;
48526;SDS011;34317;51.660;5.824;2024-03-25T01:19:55;28.33;;;6.75;;
48526;SDS011;34317;51.660;5.824;2024-03-25T01:22:21;25.13;;;6.20;;
48526;SDS011;34317;51.660;5.824;2024-03-25T01:24:48;27.63;;;5.53;;
48526;SDS011;34317;51.660;5.824;2024-03-25T01:27:14;23.98;;;5.10;;
48526;SDS011;34317;51.660;5.824;2024-03-25T01:29:40;20.90;;;4.32;;
48526;SDS011;34317;51.660;5.824;2024-03-25T01:32:07;17.73;;;5.18;;
48526;SDS011;34317;51.660;5.824;2024-03-25T01:34:33;18.50;;;4.85;;
48526;SDS011;34317;51.660;5.824;2024-03-25T01:36:59;27.15;;;4.90;;
48526;SDS011;34317;51.660;5.824;2024-03-25T01:39:25;26.90;;;5.10;;
48526;SDS011;34317;51.660;5.824;2024-03-25T01:41:52;23.85;;;4.63;;
48526;SDS011;34317;51.660;5.824;2024-03-25T01:44:18;21.88;;;4.50;;
48526;SDS011;34317;51.660;5.824;2024-03-25T01:46:44;21.20;;;4.60;;
48526;SDS011;34317;51.660;5.824;2024-03-25T01:49:11;26.05;;;4.80;;
48526;SDS011;34317;51.660;5.824;2024-03-25T01:51:37;19.45;;;3.92;;
48526;SDS011;34317;51.660;5.824;2024-03-25T01:54:05;24.45;;;4.30;;
48526;SDS011;34317;51.660;5.824;2024-03-25T01:56:33;22.98;;;4.55;;
48526;SDS011;34317;51.660;5.824;2024-03-25T01:59:00;25.77;;;4.13;;
48526;SDS011;34317;51.660;5.824;2024-03-25T02:01:28;20.77;;;4.57;;
48526;SDS011;34317;51.660;5.824;2024-03-25T02:03:55;20.85;;;4.00;;
48526;SDS011;34317;51.660;5.824;2024-03-25T02:06:22;23.42;;;4.10;;
48526;SDS011;34317;51.660;5.824;2024-03-25T02:08:52;20.33;;;4.32;;
48526;SDS011;34317;51.660;5.824;2024-03-25T02:11:22;11.55;;;3.50;;
48526;SDS011;34317;51.660;5.824;2024-03-25T02:13:50;16.48;;;3.50;;
48526;SDS011;34317;51.660;5.824;2024-03-25T02:16:17;21.52;;;3.88;;
48526;SDS011;34317;51.660;5.824;2024-03-25T02:18:44;19.45;;;3.75;;
48526;SDS011;34317;51.660;5.824;2024-03-25T02:21:10;29.98;;;4.40;;
48526;SDS011;34317;51.660;5.824;2024-03-25T02:23:38;24.55;;;4.50;;
48526;SDS011;34317;51.660;5.824;2024-03-25T02:26:05;23.02;;;4.78;;
48526;SDS011;34317;51.660;5.824;2024-03-25T02:28:31;24.27;;;4.25;;
48526;SDS011;34317;51.660;5.824;2024-03-25T02:30:58;19.88;;;4.07;;
48526;SDS011;34317;51.660;5.824;2024-03-25T02:33:24;22.55;;;4.68;;
48526;SDS011;34317;51.660;5.824;2024-03-25T02:35:50;23.33;;;4.60;;
48526;SDS011;34317;51.660;5.824;2024-03-25T02:38:17;26.88;;;4.93;;
48526;SDS011;34317;51.660;5.824;2024-03-25T02:40:44;23.92;;;4.88;;
48526;SDS011;34317;51.660;5.824;2024-03-25T02:43:11;18.50;;;4.60;;
48526;SDS011;34317;51.660;5.824;2024-03-25T02:45:37;27.88;;;4.50;;
48526;SDS011;34317;51.660;5.824;2024-03-25T02:48:04;26.05;;;4.30;;
48526;SDS011;34317;51.660;5.824;2024-03-25T02:50:31;24.73;;;3.88;;
48526;SDS011;34317;51.660;5.824;2024-03-25T02:52:57;18.70;;;4.25;;
48526;SDS011;34317;51.660;5.824;2024-03-25T02:55:23;19.85;;;4.40;;
48526;SDS011;34317;51.660;5.824;2024-03-25T02:57:50;20.17;;;3.85;;
48526;SDS011;34317;51.660;5.824;2024-03-25T03:00:16;18.27;;;3.78;;
48526;SDS011;34317;51.660;5.824;2024-03-25T03:02:43;21.27;;;3.88;;
48526;SDS011;34317;51.660;5.824;2024-03-25T03:05:09;17.70;;;3.95;;
48526;SDS011;34317;51.660;5.824;2024-03-25T03:07:36;21.23;;;3.83;;
48526;SDS011;34317;51.660;5.824;2024-03-25T03:10:02;15.85;;;4.28;;
48526;SDS011;34317;51.660;5.824;2024-03-25T03:12:28;21.00;;;3.83;;
48526;SDS011;34317;51.660;5.824;2024-03-25T03:14:55;25.13;;;4.10;;
48526;SDS011;34317;51.660;5.824;2024-03-25T03:17:21;22.77;;;3.90;;
48526;SDS011;34317;51.660;5.824;2024-03-25T03:19:47;18.05;;;3.22;;
48526;SDS011;34317;51.660;5.824;2024-03-25T03:22:14;17.40;;;3.60;;
48526;SDS011;34317;51.660;5.824;2024-03-25T03:24:40;19.77;;;3.83;;
48526;SDS011;34317;51.660;5.824;2024-03-25T03:27:06;20.05;;;4.35;;
48526;SDS011;34317;51.660;5.824;2024-03-25T03:29:33;20.40;;;4.28;;
48526;SDS011;34317;51.660;5.824;2024-03-25T03:31:59;19.90;;;3.65;;
48526;SDS011;34317;51.660;5.824;2024-03-25T03:34:25;18.90;;;3.67;;
48526;SDS011;34317;51.660;5.824;2024-03-25T03:36:52;16.85;;;3.50;;
48526;SDS011;34317;51.660;5.824;2024-03-25T03:39:18;17.52;;;3.92;;
48526;SDS011;34317;51.660;5.824;2024-03-25T03:41:45;16.45;;;3.80;;
48526;SDS011;34317;51.660;5.824;2024-03-25T03:44:11;21.80;;;4.20;;
48526;SDS011;34317;51.660;5.824;2024-03-25T03:46:39;20.73;;;3.95;;
48526;SDS011;34317;51.660;5.824;2024-03-25T03:49:05;23.95;;;3.60;;
48526;SDS011;34317;51.660;5.824;2024-03-25T03:51:31;15.32;;;3.63;;
48526;SDS011;34317;51.660;5.824;2024-03-25T03:53:58;16.50;;;3.72;;
48526;SDS011;34317;51.660;5.824;2024-03-25T03:56:24;19.80;;;3.90;;
48526;SDS011;34317;51.660;5.824;2024-03-25T03:58:50;19.10;;;3.85;;
48526;SDS011;34317;51.660;5.824;2024-03-25T04:01:17;18.15;;;4.50;;
48526;SDS011;34317;51.660;5.824;2024-03-25T04:03:44;21.15;;;4.00;;
48526;SDS011;34317;51.660;5.824;2024-03-25T04:06:11;17.65;;;3.67;;
48526;SDS011;34317;51.660;5.824;2024-03-25T04:08:38;20.60;;;3.53;;
48526;SDS011;34317;51.660;5.824;2024-03-25T04:11:07;19.83;;;3.60;;
48526;SDS011;34317;51.660;5.824;2024-03-25T04:13:34;18.40;;;3.35;;
48526;SDS011;34317;51.660;5.824;2024-03-25T04:16:01;17.23;;;2.83;;
48526;SDS011;34317;51.660;5.824;2024-03-25T04:18:32;17.30;;;3.53;;
48526;SDS011;34317;51.660;5.824;2024-03-25T04:20:59;22.35;;;4.00;;
48526;SDS011;34317;51.660;5.824;2024-03-25T04:23:26;17.65;;;3.10;;
48526;SDS011;34317;51.660;5.824;2024-03-25T04:25:52;19.58;;;4.03;;
48526;SDS011;34317;51.660;5.824;2024-03-25T04:28:19;18.60;;;3.22;;
48526;SDS011;34317;51.660;5.824;2024-03-25T04:30:52;19.70;;;3.80;;
48526;SDS011;34317;51.660;5.824;2024-03-25T04:33:19;17.60;;;3.45;;
48526;SDS011;34317;51.660;5.824;2024-03-25T04:35:46;20.95;;;3.83;;
48526;SDS011;34317;51.660;5.824;2024-03-25T04:38:15;21.98;;;3.83;;
48526;SDS011;34317;51.660;5.824;2024-03-25T04:40:42;20.27;;;3.28;;
48526;SDS011;34317;51.660;5.824;2024-03-25T04:43:10;19.92;;;3.58;;
48526;SDS011;34317;51.660;5.824;2024-03-25T04:45:36;14.68;;;3.80;;
48526;SDS011;34317;51.660;5.824;2024-03-25T04:48:03;18.42;;;3.55;;
48526;SDS011;34317;51.660;5.824;2024-03-25T04:50:30;14.57;;;3.45;;
48526;SDS011;34317;51.660;5.824;2024-03-25T04:52:56;17.20;;;3.10;;
48526;SDS011;34317;51.660;5.824;2024-03-25T04:55:23;14.55;;;3.38;;
48526;SDS011;34317;51.660;5.824;2024-03-25T04:57:49;20.63;;;3.92;;
48526;SDS011;34317;51.660;5.824;2024-03-25T05:00:15;19.27;;;3.55;;
48526;SDS011;34317;51.660;5.824;2024-03-25T05:02:42;8.32;;;2.00;;
48526;SDS011;34317;51.660;5.824;2024-03-25T05:05:08;9.52;;;2.55;;
48526;SDS011;34317;51.660;5.824;2024-03-25T05:07:35;12.48;;;2.15;;
48526;SDS011;34317;51.660;5.824;2024-03-25T05:10:03;7.88;;;2.17;;
48526;SDS011;34317;51.660;5.824;2024-03-25T05:12:30;11.43;;;1.77;;
48526;SDS011;34317;51.660;5.824;2024-03-25T05:14:56;14.02;;;2.20;;
48526;SDS011;34317;51.660;5.824;2024-03-25T05:17:23;7.90;;;2.13;;
48526;SDS011;34317;51.660;5.824;2024-03-25T05:19:50;7.93;;;1.98;;
48526;SDS011;34317;51.660;5.824;2024-03-25T05:22:17;8.60;;;2.30;;
48526;SDS011;34317;51.660;5.824;2024-03-25T05:24:43;13.05;;;2.22;;
48526;SDS011;34317;51.660;5.824;2024-03-25T05:27:10;8.38;;;2.28;;
48526;SDS011;34317;51.660;5.824;2024-03-25T05:29:37;7.85;;;2.22;;
48526;SDS011;34317;51.660;5.824;2024-03-25T05:32:03;17.95;;;4.00;;
48526;SDS011;34317;51.660;5.824;2024-03-25T05:34:29;12.43;;;2.50;;
48526;SDS011;34317;51.660;5.824;2024-03-25T05:36:57;9.00;;;2.40;;
48526;SDS011;34317;51.660;5.824;2024-03-25T05:39:24;10.05;;;2.40;;
48526;SDS011;34317;51.660;5.824;2024-03-25T05:41:50;8.23;;;2.38;;
48526;SDS011;34317;51.660;5.824;2024-03-25T05:44:16;6.70;;;2.38;;
48526;SDS011;34317;51.660;5.824;2024-03-25T05:46:43;19.35;;;2.90;;
48526;SDS011;34317;51.660;5.824;2024-03-25T05:49:09;11.55;;;2.83;;
48526;SDS011;34317;51.660;5.824;2024-03-25T05:51:36;18.38;;;2.97;;
48526;SDS011;34317;51.660;5.824;2024-03-25T05:54:02;10.38;;;3.03;;
48526;SDS011;34317;51.660;5.824;2024-03-25T05:56:29;10.20;;;3.17;;
48526;SDS011;34317;51.660;5.824;2024-03-25T05:58:58;16.63;;;3.75;;
48526;SDS011;34317;51.660;5.824;2024-03-25T06:01:25;14.20;;;3.85;;
48526;SDS011;34317;51.660;5.824;2024-03-25T06:03:52;9.45;;;3.75;;
48526;SDS011;34317;51.660;5.824;2024-03-25T06:06:19;11.35;;;3.72;;
48526;SDS011;34317;51.660;5.824;2024-03-25T06:08:45;9.85;;;3.28;;
48526;SDS011;34317;51.660;5.824;2024-03-25T06:11:11;12.73;;;3.95;;
48526;SDS011;34317;51.660;5.824;2024-03-25T06:13:38;12.93;;;4.18;;
48526;SDS011;34317;51.660;5.824;2024-03-25T06:16:04;11.68;;;4.40;;
48526;SDS011;34317;51.660;5.824;2024-03-25T06:18:30;12.80;;;4.43;;
48526;SDS011;34317;51.660;5.824;2024-03-25T06:20:57;13.38;;;4.18;;
48526;SDS011;34317;51.660;5.824;2024-03-25T06:23:24;16.02;;;4.95;;
48526;SDS011;34317;51.660;5.824;2024-03-25T06:25:51;19.88;;;4.53;;
48526;SDS011;34317;51.660;5.824;2024-03-25T06:28:19;13.35;;;4.55;;
48526;SDS011;34317;51.660;5.824;2024-03-25T06:30:46;10.07;;;5.15;;
48526;SDS011;34317;51.660;5.824;2024-03-25T06:33:31;10.65;;;4.82;;
48526;SDS011;34317;51.660;5.824;2024-03-25T06:36:17;17.75;;;5.75;;
48526;SDS011;34317;51.660;5.824;2024-03-25T06:38:44;14.55;;;5.05;;
48526;SDS011;34317;51.660;5.824;2024-03-25T06:41:11;17.50;;;5.97;;
48526;SDS011;34317;51.660;5.824;2024-03-25T06:43:37;16.13;;;5.90;;
48526;SDS011;34317;51.660;5.824;2024-03-25T06:46:05;16.10;;;5.13;;
48526;SDS011;34317;51.660;5.824;2024-03-25T06:48:32;19.90;;;5.90;;
48526;SDS011;34317;51.660;5.824;2024-03-25T06:51:00;16.83;;;5.80;;
48526;SDS011;34317;51.660;5.824;2024-03-25T06:53:28;12.75;;;5.43;;
48526;SDS011;34317;51.660;5.824;2024-03-25T06:55:55;15.70;;;6.28;;
48526;SDS011;34317;51.660;5.824;2024-03-25T06:58:24;16.52;;;5.38;;
48526;SDS011;34317;51.660;5.824;2024-03-25T07:00:52;14.00;;;6.25;;
48526;SDS011;34317;51.660;5.824;2024-03-25T07:03:19;12.27;;;5.65;;
48526;SDS011;34317;51.660;5.824;2024-03-25T07:05:47;14.88;;;6.38;;
48526;SDS011;34317;51.660;5.824;2024-03-25T07:08:15;19.30;;;6.55;;
48526;SDS011;34317;51.660;5.824;2024-03-25T07:10:41;20.85;;;6.38;;
48526;SDS011;34317;51.660;5.824;2024-03-25T07:13:08;16.90;;;6.82;;
48526;SDS011;34317;51.660;5.824;2024-03-25T07:15:36;20.83;;;6.93;;
48526;SDS011;34317;51.660;5.824;2024-03-25T07:18:02;16.20;;;6.68;;
48526;SDS011;34317;51.660;5.824;2024-03-25T07:20:29;20.98;;;6.60;;
48526;SDS011;34317;51.660;5.824;2024-03-25T07:22:57;15.23;;;7.00;;
48526;SDS011;34317;51.660;5.824;2024-03-25T07:25:25;18.02;;;6.78;;
48526;SDS011;34317;51.660;5.824;2024-03-25T07:27:51;15.55;;;6.97;;
48526;SDS011;34317;51.660;5.824;2024-03-25T07:30:18;20.42;;;6.63;;
48526;SDS011;34317;51.660;5.824;2024-03-25T07:32:45;15.68;;;7.03;;
48526;SDS011;34317;51.660;5.824;2024-03-25T07:35:11;16.40;;;7.00;;
48526;SDS011;34317;51.660;5.824;2024-03-25T07:37:38;16.60;;;6.57;;
48526;SDS011;34317;51.660;5.824;2024-03-25T07:40:06;14.95;;;6.30;;
48526;SDS011;34317;51.660;5.824;2024-03-25T07:42:33;15.50;;;6.38;;
48526;SDS011;34317;51.660;5.824;2024-03-25T07:44:59;13.68;;;6.05;;
48526;SDS011;34317;51.660;5.824;2024-03-25T07:47:26;12.98;;;6.18;;
48526;SDS011;34317;51.660;5.824;2024-03-25T07:49:52;12.65;;;5.85;;
48526;SDS011;34317;51.660;5.824;2024-03-25T07:52:18;17.88;;;6.15;;
48526;SDS011;34317;51.660;5.824;2024-03-25T07:54:45;16.30;;;5.78;;
48526;SDS011;34317;51.660;5.824;2024-03-25T07:57:11;18.40;;;5.60;;
48526;SDS011;34317;51.660;5.824;2024-03-25T07:59:37;17.00;;;5.60;;
48526;SDS011;34317;51.660;5.824;2024-03-25T08:02:03;15.85;;;5.93;;
48526;SDS011;34317;51.660;5.824;2024-03-25T08:04:30;12.95;;;5.60;;
48526;SDS011;34317;51.660;5.824;2024-03-25T08:06:56;12.93;;;5.70;;
48526;SDS011;34317;51.660;5.824;2024-03-25T08:09:23;18.67;;;5.30;;
48526;SDS011;34317;51.660;5.824;2024-03-25T08:11:49;12.30;;;5.18;;
48526;SDS011;34317;51.660;5.824;2024-03-25T08:14:15;14.45;;;5.32;;
48526;SDS011;34317;51.660;5.824;2024-03-25T08:16:41;16.48;;;5.78;;
48526;SDS011;34317;51.660;5.824;2024-03-25T08:19:08;14.23;;;5.40;;
48526;SDS011;34317;51.660;5.824;2024-03-25T08:21:34;12.50;;;5.25;;
48526;SDS011;34317;51.660;5.824;2024-03-25T08:24:00;17.48;;;5.72;;
48526;SDS011;34317;51.660;5.824;2024-03-25T08:26:27;16.38;;;5.40;;
48526;SDS011;34317;51.660;5.824;2024-03-25T08:28:53;15.07;;;5.07;;
48526;SDS011;34317;51.660;5.824;2024-03-25T08:31:19;13.50;;;4.90;;
48526;SDS011;34317;51.660;5.824;2024-03-25T08:33:45;11.65;;;4.63;;
48526;SDS011;34317;51.660;5.824;2024-03-25T08:36:12;9.80;;;4.75;;
48526;SDS011;34317;51.660;5.824;2024-03-25T08:38:38;11.00;;;4.38;;
48526;SDS011;34317;51.660;5.824;2024-03-25T08:41:07;13.40;;;4.68;;
48526;SDS011;34317;51.660;5.824;2024-03-25T08:43:34;16.75;;;4.60;;
48526;SDS011;34317;51.660;5.824;2024-03-25T08:46:02;11.50;;;3.78;;
48526;SDS011;34317;51.660;5.824;2024-03-25T08:48:29;9.48;;;3.28;;
48526;SDS011;34317;51.660;5.824;2024-03-25T08:50:56;11.15;;;3.80;;
48526;SDS011;34317;51.660;5.824;2024-03-25T08:53:22;7.70;;;3.13;;
48526;SDS011;34317;51.660;5.824;2024-03-25T08:55:49;8.93;;;3.05;;
48526;SDS011;34317;51.660;5.824;2024-03-25T08:58:15;10.57;;;3.47;;
48526;SDS011;34317;51.660;5.824;2024-03-25T09:00:44;8.68;;;2.90;;
48526;SDS011;34317;51.660;5.824;2024-03-25T09:03:10;10.50;;;2.97;;
48526;SDS011;34317;51.660;5.824;2024-03-25T09:05:37;9.52;;;3.20;;
48526;SDS011;34317;51.660;5.824;2024-03-25T09:08:08;10.70;;;2.58;;
48526;SDS011;34317;51.660;5.824;2024-03-25T09:10:37;9.20;;;2.22;;
48526;SDS011;34317;51.660;5.824;2024-03-25T09:13:22;6.57;;;1.93;;
48526;SDS011;34317;51.660;5.824;2024-03-25T09:15:51;9.68;;;2.38;;
48526;SDS011;34317;51.660;5.824;2024-03-25T09:18:20;8.15;;;2.47;;
48526;SDS011;34317;51.660;5.824;2024-03-25T09:20:46;7.18;;;2.28;;
48526;SDS011;34317;51.660;5.824;2024-03-25T09:23:13;9.50;;;2.72;;
48526;SDS011;34317;51.660;5.824;2024-03-25T09:25:39;6.60;;;2.10;;
48526;SDS011;34317;51.660;5.824;2024-03-25T09:28:05;6.07;;;1.80;;
48526;SDS011;34317;51.660;5.824;2024-03-25T09:30:33;7.93;;;2.30;;
48526;SDS011;34317;51.660;5.824;2024-03-25T09:32:59;5.95;;;2.35;;
48526;SDS011;34317;51.660;5.824;2024-03-25T09:35:25;6.35;;;2.45;;
48526;SDS011;34317;51.660;5.824;2024-03-25T09:37:52;8.10;;;2.60;;
48526;SDS011;34317;51.660;5.824;2024-03-25T09:40:18;10.48;;;2.13;;
48526;SDS011;34317;51.660;5.824;2024-03-25T09:45:17;9.68;;;2.53;;
48526;SDS011;34317;51.660;5.824;2024-03-25T09:47:45;3.45;;;2.20;;
48526;SDS011;34317;51.660;5.824;2024-03-25T09:50:12;4.90;;;2.20;;
48526;SDS011;34317;51.660;5.824;2024-03-25T09:52:49;7.85;;;2.63;;
48526;SDS011;34317;51.660;5.824;2024-03-25T09:55:16;6.53;;;2.63;;
48526;SDS011;34317;51.660;5.824;2024-03-25T09:57:43;7.35;;;2.70;;
48526;SDS011;34317;51.660;5.824;2024-03-25T10:00:10;6.75;;;2.72;;
48526;SDS011;34317;51.660;5.824;2024-03-25T10:02:44;6.95;;;2.70;;
48526;SDS011;34317;51.660;5.824;2024-03-25T10:05:11;7.30;;;2.80;;
48526;SDS011;34317;51.660;5.824;2024-03-25T10:07:38;4.70;;;2.45;;
48526;SDS011;34317;51.660;5.824;2024-03-25T10:10:05;6.15;;;2.97;;
48526;SDS011;34317;51.660;5.824;2024-03-25T10:12:32;5.45;;;2.47;;
48526;SDS011;34317;51.660;5.824;2024-03-25T10:14:59;5.88;;;2.60;;
48526;SDS011;34317;51.660;5.824;2024-03-25T10:17:26;5.35;;;2.83;;
48526;SDS011;34317;51.660;5.824;2024-03-25T10:19:55;8.02;;;2.70;;
48526;SDS011;34317;51.660;5.824;2024-03-25T10:22:21;8.48;;;2.92;;
48526;SDS011;34317;51.660;5.824;2024-03-25T10:24:47;6.15;;;3.17;;
48526;SDS011;34317;51.660;5.824;2024-03-25T10:27:21;6.40;;;2.97;;
48526;SDS011;34317;51.660;5.824;2024-03-25T10:29:51;5.80;;;2.90;;
48526;SDS011;34317;51.660;5.824;2024-03-25T10:32:19;6.53;;;2.80;;
48526;SDS011;34317;51.660;5.824;2024-03-25T10:34:45;8.30;;;3.25;;
48526;SDS011;34317;51.660;5.824;2024-03-25T10:37:12;8.35;;;3.15;;
48526;SDS011;34317;51.660;5.824;2024-03-25T10:39:50;8.45;;;3.33;;
48526;SDS011;34317;51.660;5.824;2024-03-25T10:42:20;6.43;;;3.25;;
48526;SDS011;34317;51.660;5.824;2024-03-25T10:44:49;8.23;;;3.63;;
48526;SDS011;34317;51.660;5.824;2024-03-25T10:47:22;6.95;;;3.08;;
48526;SDS011;34317;51.660;5.824;2024-03-25T10:49:58;6.03;;;2.83;;
48526;SDS011;34317;51.660;5.824;2024-03-25T10:52:26;6.30;;;3.17;;
48526;SDS011;34317;51.660;5.824;2024-03-25T10:54:55;8.38;;;3.08;;
48526;SDS011;34317;51.660;5.824;2024-03-25T10:57:22;7.15;;;3.05;;
48526;SDS011;34317;51.660;5.824;2024-03-25T10:59:49;8.65;;;3.38;;
48526;SDS011;34317;51.660;5.824;2024-03-25T11:02:15;8.23;;;2.90;;
48526;SDS011;34317;51.660;5.824;2024-03-25T11:04:43;6.05;;;2.67;;
48526;SDS011;34317;51.660;5.824;2024-03-25T11:07:11;8.75;;;3.20;;
48526;SDS011;34317;51.660;5.824;2024-03-25T11:09:39;6.75;;;3.35;;
48526;SDS011;34317;51.660;5.824;2024-03-25T11:12:07;7.18;;;3.00;;
48526;SDS011;34317;51.660;5.824;2024-03-25T11:14:37;8.43;;;3.60;;
48526;SDS011;34317;51.660;5.824;2024-03-25T11:17:13;8.57;;;3.63;;
48526;SDS011;34317;51.660;5.824;2024-03-25T11:19:43;6.82;;;3.10;;
48526;SDS011;34317;51.660;5.824;2024-03-25T11:22:09;8.43;;;2.70;;
48526;SDS011;34317;51.660;5.824;2024-03-25T11:24:37;7.97;;;3.20;;
48526;SDS011;34317;51.660;5.824;2024-03-25T11:27:07;10.85;;;3.10;;
48526;SDS011;34317;51.660;5.824;2024-03-25T11:29:34;9.15;;;4.32;;
48526;SDS011;34317;51.660;5.824;2024-03-25T11:32:04;9.95;;;4.13;;
48526;SDS011;34317;51.660;5.824;2024-03-25T11:34:31;11.85;;;4.07;;
48526;SDS011;34317;51.660;5.824;2024-03-25T11:36:58;9.57;;;4.05;;
48526;SDS011;34317;51.660;5.824;2024-03-25T11:39:24;11.45;;;4.18;;
48526;SDS011;34317;51.660;5.824;2024-03-25T11:41:54;10.02;;;4.28;;
48526;SDS011;34317;51.660;5.824;2024-03-25T11:44:21;8.63;;;3.88;;
48526;SDS011;34317;51.660;5.824;2024-03-25T11:46:51;12.07;;;4.07;;
48526;SDS011;34317;51.660;5.824;2024-03-25T11:49:20;13.77;;;3.78;;
48526;SDS011;34317;51.660;5.824;2024-03-25T11:51:47;6.78;;;3.35;;
48526;SDS011;34317;51.660;5.824;2024-03-25T11:54:13;7.15;;;3.53;;
48526;SDS011;34317;51.660;5.824;2024-03-25T11:56:41;8.02;;;3.50;;
48526;SDS011;34317;51.660;5.824;2024-03-25T11:59:09;10.02;;;3.38;;
48526;SDS011;34317;51.660;5.824;2024-03-25T12:01:37;9.25;;;4.00;;
48526;SDS011;34317;51.660;5.824;2024-03-25T12:04:10;10.73;;;3.90;;
48526;SDS011;34317;51.660;5.824;2024-03-25T12:06:37;10.07;;;4.07;;
48526;SDS011;34317;51.660;5.824;2024-03-25T12:09:03;6.55;;;3.00;;
48526;SDS011;34317;51.660;5.824;2024-03-25T12:11:48;6.83;;;3.30;;
48526;SDS011;34317;51.660;5.824;2024-03-25T12:14:15;8.55;;;4.53;;
48526;SDS011;34317;51.660;5.824;2024-03-25T12:16:42;8.32;;;3.40;;
48526;SDS011;34317;51.660;5.824;2024-03-25T12:19:08;10.32;;;3.40;;
48526;SDS011;34317;51.660;5.824;2024-03-25T12:21:35;6.75;;;3.05;;
48526;SDS011;34317;51.660;5.824;2024-03-25T12:24:03;7.60;;;3.10;;
48526;SDS011;34317;51.660;5.824;2024-03-25T12:26:30;7.82;;;3.30;;
48526;SDS011;34317;51.660;5.824;2024-03-25T12:28:57;6.45;;;2.88;;
48526;SDS011;34317;51.660;5.824;2024-03-25T12:31:24;9.50;;;3.72;;
48526;SDS011;34317;51.660;5.824;2024-03-25T12:33:50;7.40;;;3.50;;
48526;SDS011;34317;51.660;5.824;2024-03-25T12:36:17;6.85;;;3.40;;
48526;SDS011;34317;51.660;5.824;2024-03-25T12:38:43;6.78;;;2.97;;
48526;SDS011;34317;51.660;5.824;2024-03-25T12:41:10;8.00;;;3.40;;
48526;SDS011;34317;51.660;5.824;2024-03-25T12:43:43;6.30;;;2.90;;
48526;SDS011;34317;51.660;5.824;2024-03-25T12:46:11;6.50;;;3.17;;
48526;SDS011;34317;51.660;5.824;2024-03-25T12:48:38;4.72;;;2.40;;
48526;SDS011;34317;51.660;5.824;2024-03-25T12:51:11;9.35;;;3.20;;
48526;SDS011;34317;51.660;5.824;2024-03-25T12:53:39;8.13;;;3.20;;
48526;SDS011;34317;51.660;5.824;2024-03-25T12:56:05;7.22;;;3.08;;
48526;SDS011;34317;51.660;5.824;2024-03-25T12:58:32;7.93;;;2.90;;
48526;SDS011;34317;51.660;5.824;2024-03-25T13:01:00;6.25;;;2.90;;
48526;SDS011;34317;51.660;5.824;2024-03-25T13:03:26;4.68;;;2.45;;
48526;SDS011;34317;51.660;5.824;2024-03-25T13:05:52;8.18;;;3.10;;
48526;SDS011;34317;51.660;5.824;2024-03-25T13:08:20;7.15;;;3.00;;
48526;SDS011;34317;51.660;5.824;2024-03-25T13:10:47;6.78;;;3.15;;
48526;SDS011;34317;51.660;5.824;2024-03-25T13:13:13;5.93;;;3.15;;
48526;SDS011;34317;51.660;5.824;2024-03-25T13:15:40;6.95;;;3.10;;
48526;SDS011;34317;51.660;5.824;2024-03-25T13:18:06;6.25;;;2.53;;
48526;SDS011;34317;51.660;5.824;2024-03-25T13:20:32;4.82;;;2.47;;
48526;SDS011;34317;51.660;5.824;2024-03-25T13:22:59;4.75;;;2.80;;
48526;SDS011;34317;51.660;5.824;2024-03-25T13:25:25;5.45;;;2.53;;
48526;SDS011;34317;51.660;5.824;2024-03-25T13:27:55;5.80;;;2.45;;
48526;SDS011;34317;51.660;5.824;2024-03-25T13:30:21;4.03;;;2.40;;
48526;SDS011;34317;51.660;5.824;2024-03-25T13:32:50;6.03;;;2.65;;
48526;SDS011;34317;51.660;5.824;2024-03-25T13:35:16;5.15;;;2.50;;
48526;SDS011;34317;51.660;5.824;2024-03-25T13:37:43;5.50;;;2.60;;
48526;SDS011;34317;51.660;5.824;2024-03-25T13:40:10;6.22;;;2.25;;
48526;SDS011;34317;51.660;5.824;2024-03-25T13:42:37;4.65;;;2.30;;
48526;SDS011;34317;51.660;5.824;2024-03-25T13:45:04;5.38;;;1.98;;
48526;SDS011;34317;51.660;5.824;2024-03-25T13:47:31;6.78;;;2.65;;
48526;SDS011;34317;51.660;5.824;2024-03-25T13:50:03;6.30;;;2.58;;
48526;SDS011;34317;51.660;5.824;2024-03-25T13:52:34;5.28;;;2.65;;
48526;SDS011;34317;51.660;5.824;2024-03-25T13:55:01;3.97;;;2.17;;
48526;SDS011;34317;51.660;5.824;2024-03-25T13:57:27;7.53;;;2.58;;
48526;SDS011;34317;51.660;5.824;2024-03-25T13:59:54;6.45;;;2.70;;
48526;SDS011;34317;51.660;5.824;2024-03-25T14:02:20;5.65;;;2.50;;
48526;SDS011;34317;51.660;5.824;2024-03-25T14:04:46;4.15;;;2.00;;
48526;SDS011;34317;51.660;5.824;2024-03-25T14:07:14;4.97;;;2.40;;
48526;SDS011;34317;51.660;5.824;2024-03-25T14:09:40;6.50;;;2.58;;
48526;SDS011;34317;51.660;5.824;2024-03-25T14:12:06;7.13;;;2.50;;
48526;SDS011;34317;51.660;5.824;2024-03-25T14:14:32;7.07;;;2.40;;
48526;SDS011;34317;51.660;5.824;2024-03-25T14:16:59;6.03;;;2.50;;
48526;SDS011;34317;51.660;5.824;2024-03-25T14:19:25;4.68;;;2.10;;
48526;SDS011;34317;51.660;5.824;2024-03-25T14:21:51;5.00;;;2.20;;
48526;SDS011;34317;51.660;5.824;2024-03-25T14:24:17;3.65;;;2.00;;
48526;SDS011;34317;51.660;5.824;2024-03-25T14:26:44;5.47;;;2.03;;
48526;SDS011;34317;51.660;5.824;2024-03-25T14:29:10;4.80;;;2.00;;
48526;SDS011;34317;51.660;5.824;2024-03-25T14:31:36;7.15;;;2.40;;
48526;SDS011;34317;51.660;5.824;2024-03-25T14:34:02;7.97;;;2.47;;
48526;SDS011;34317;51.660;5.824;2024-03-25T14:36:28;5.38;;;2.17;;
48526;SDS011;34317;51.660;5.824;2024-03-25T14:38:55;4.63;;;2.28;;
48526;SDS011;34317;51.660;5.824;2024-03-25T14:41:21;3.20;;;1.70;;
48526;SDS011;34317;51.660;5.824;2024-03-25T14:43:47;6.68;;;2.30;;